createdAt,value
2019-01-23T00:01:23.176Z,93.20
2019-01-23T00:03:50.781Z,93.10
2019-01-23T00:06:18.324Z,93.20
2019-01-23T00:08:45.878Z,93.60
2019-01-23T00:11:13.640Z,93.20
2019-01-23T00:13:41.208Z,93.20
2019-01-23T00:16:08.756Z,93.20
2019-01-23T00:18:36.344Z,93.30
2019-01-23T00:21:03.880Z,93.10
2019-01-23T00:23:31.456Z,93.20
2019-01-23T00:25:59.033Z,93.30
2019-01-23T00:28:26.649Z,93.30
2019-01-23T00:30:54.188Z,93.40
2019-01-23T00:33:21.724Z,93.30
2019-01-23T00:35:49.305Z,93.40
2019-01-23T00:38:16.864Z,93.50
2019-01-23T00:40:44.368Z,93.20
2019-01-23T00:43:11.955Z,93.30
2019-01-23T00:45:39.515Z,93.40
2019-01-23T00:48:07.098Z,93.80
2019-01-23T00:50:34.584Z,93.50
2019-01-23T00:53:02.187Z,93.40
2019-01-23T00:55:29.810Z,93.40
2019-01-23T00:57:57.352Z,93.50
2019-01-23T01:00:25.544Z,93.60
2019-01-23T01:02:53.385Z,93.50
2019-01-23T01:05:21.624Z,93.50
2019-01-23T01:07:49.387Z,93.70
2019-01-23T01:10:17.611Z,93.60
2019-01-23T01:12:45.146Z,93.70
2019-01-23T01:15:13.702Z,93.60
2019-01-23T01:17:41.362Z,93.70
2019-01-23T01:20:09.738Z,93.60
2019-01-23T01:22:37.298Z,93.50
2019-01-23T01:25:07.013Z,93.30
2019-01-23T01:27:34.556Z,93.40
2019-01-23T01:30:02.123Z,93.90
2019-01-23T01:32:29.648Z,93.30
2019-01-23T01:34:57.142Z,93.10
2019-01-23T01:37:24.690Z,92.90
2019-01-23T01:39:52.179Z,93.10
2019-01-23T01:42:19.682Z,92.50
2019-01-23T01:44:47.218Z,92.30
2019-01-23T01:47:14.798Z,92.30
2019-01-23T01:49:42.294Z,92.50
2019-01-23T01:52:09.819Z,92.10
2019-01-23T01:54:37.381Z,92.10
2019-01-23T01:57:04.890Z,92.10
2019-01-23T01:59:32.458Z,92.00
2019-01-23T02:02:00.006Z,92.00
2019-01-23T02:04:27.516Z,92.00
2019-01-23T02:06:54.998Z,91.90
2019-01-23T02:09:22.538Z,91.80
2019-01-23T02:11:50.050Z,91.60
2019-01-23T02:14:17.599Z,91.40
2019-01-23T02:16:45.139Z,91.30
2019-01-23T02:19:12.695Z,91.30
2019-01-23T02:21:40.185Z,91.40
2019-01-23T02:24:07.736Z,91.20
2019-01-23T02:26:35.222Z,91.00
2019-01-23T02:29:09.337Z,91.20
2019-01-23T02:31:32.136Z,91.40
2019-01-23T02:33:59.641Z,91.10
2019-01-23T02:36:27.139Z,91.00
2019-01-23T02:38:54.661Z,91.00
2019-01-23T02:41:22.169Z,91.10
2019-01-23T02:43:49.653Z,90.90
2019-01-23T02:46:17.193Z,90.60
2019-01-23T02:48:44.697Z,90.60
2019-01-23T02:51:12.194Z,90.60
2019-01-23T02:53:39.739Z,90.40
2019-01-23T02:56:07.231Z,90.50
2019-01-23T02:58:34.717Z,90.40
2019-01-23T03:01:02.261Z,90.40
2019-01-23T03:03:29.765Z,90.20
2019-01-23T03:05:57.258Z,90.10
2019-01-23T03:08:24.778Z,90.00
2019-01-23T03:10:52.318Z,90.10
2019-01-23T03:13:19.813Z,90.20
2019-01-23T03:15:47.375Z,90.10
2019-01-23T03:18:14.907Z,90.00
2019-01-23T03:20:42.394Z,90.10
2019-01-23T03:23:09.911Z,89.70
2019-01-23T03:25:37.461Z,89.50
2019-01-23T03:28:04.970Z,89.10
2019-01-23T03:30:32.483Z,89.40
2019-01-23T03:33:00.003Z,89.90
2019-01-23T03:35:27.568Z,90.00
2019-01-23T03:37:55.046Z,89.50
2019-01-23T03:40:22.541Z,89.70
2019-01-23T03:42:50.067Z,89.80
2019-01-23T03:45:17.809Z,88.60
2019-01-23T03:47:45.307Z,88.80
2019-01-23T03:50:14.825Z,88.80
2019-01-23T03:52:42.359Z,89.60
2019-01-23T03:55:10.282Z,88.70
2019-01-23T03:57:37.765Z,89.40
2019-01-23T04:00:07.146Z,89.80
2019-01-23T04:02:34.663Z,89.40
2019-01-23T04:05:02.161Z,89.70
2019-01-23T04:07:29.714Z,89.20
2019-01-23T04:09:57.296Z,88.90
2019-01-23T04:12:24.779Z,88.70
2019-01-23T04:14:52.306Z,88.10
2019-01-23T04:17:19.858Z,88.60
2019-01-23T04:19:47.354Z,88.80
2019-01-23T04:22:14.890Z,88.80
2019-01-23T04:24:42.366Z,88.60
2019-01-23T04:27:09.865Z,88.30
2019-01-23T04:29:39.787Z,88.60
2019-01-23T04:32:06.691Z,88.50
2019-01-23T04:34:34.189Z,88.60
2019-01-23T04:37:01.800Z,88.50
2019-01-23T04:39:29.281Z,88.50
2019-01-23T04:41:56.764Z,88.60
2019-01-23T04:44:24.389Z,88.50
2019-01-23T04:46:51.886Z,88.60
2019-01-23T04:49:19.382Z,88.60
2019-01-23T04:51:54.349Z,89.30
2019-01-23T04:54:21.886Z,89.10
2019-01-23T04:56:49.357Z,89.60
2019-01-23T04:59:16.857Z,88.50
2019-01-23T05:01:44.359Z,88.50
2019-01-23T05:04:11.862Z,88.70
2019-01-23T05:06:39.409Z,88.60
2019-01-23T05:09:08.290Z,88.70
2019-01-23T05:11:35.929Z,88.60
2019-01-23T05:14:04.194Z,89.10
2019-01-23T05:16:31.747Z,88.50
2019-01-23T05:18:59.239Z,88.80
2019-01-23T05:21:26.777Z,88.50
2019-01-23T05:23:54.287Z,89.10
2019-01-23T05:26:21.778Z,89.40
2019-01-23T05:28:49.281Z,88.50
2019-01-23T05:31:16.831Z,89.30
2019-01-23T05:33:44.343Z,89.70
2019-01-23T05:36:11.849Z,89.50
2019-01-23T05:38:39.373Z,89.50
2019-01-23T05:41:06.884Z,88.80
2019-01-23T05:43:34.432Z,88.60
2019-01-23T05:46:01.970Z,88.80
2019-01-23T05:48:29.537Z,88.70
2019-01-23T05:50:57.087Z,88.90
2019-01-23T05:53:24.584Z,88.80
2019-01-23T05:55:52.086Z,88.70
2019-01-23T05:58:19.615Z,88.60
2019-01-23T06:00:47.100Z,88.90
2019-01-23T06:03:14.582Z,88.80
2019-01-23T06:05:42.121Z,88.70
2019-01-23T06:08:09.658Z,88.70
2019-01-23T06:10:37.122Z,88.60
2019-01-23T06:13:05.899Z,88.60
2019-01-23T06:15:33.485Z,88.70
2019-01-23T06:18:02.738Z,89.10
2019-01-23T06:20:30.613Z,88.70
2019-01-23T06:22:58.109Z,88.80
2019-01-23T06:25:25.673Z,89.10
2019-01-23T06:27:53.202Z,89.20
2019-01-23T06:30:22.988Z,89.50
2019-01-23T06:32:50.523Z,89.80
2019-01-23T06:35:18.024Z,88.80
2019-01-23T06:37:45.959Z,88.70
2019-01-23T06:40:15.087Z,88.90
2019-01-23T06:42:42.561Z,88.90
2019-01-23T06:45:11.842Z,89.40
2019-01-23T06:47:39.398Z,89.10
2019-01-23T06:50:09.887Z,88.90
2019-01-23T06:52:37.397Z,89.40
2019-01-23T06:55:05.529Z,88.80
2019-01-23T06:57:33.021Z,89.00
2019-01-23T07:00:00.501Z,88.80
2019-01-23T07:02:28.017Z,88.90
2019-01-23T07:04:55.517Z,88.80
2019-01-23T07:07:23.011Z,88.90
2019-01-23T07:09:50.550Z,88.90
2019-01-23T07:12:18.089Z,89.00
2019-01-23T07:14:45.585Z,89.20
2019-01-23T07:17:13.128Z,89.00
2019-01-23T07:19:40.665Z,89.00
2019-01-23T07:22:08.153Z,89.10
2019-01-23T07:24:35.642Z,89.10
2019-01-23T07:27:03.449Z,89.00
2019-01-23T07:29:30.989Z,89.10
2019-01-23T07:31:58.466Z,89.10
2019-01-23T07:34:25.946Z,89.20
2019-01-23T07:36:53.492Z,88.70
2019-01-23T07:39:20.973Z,89.10
2019-01-23T07:41:48.555Z,88.90
2019-01-23T07:44:16.073Z,89.30
2019-01-23T07:46:43.551Z,88.60
2019-01-23T07:49:11.095Z,88.50
2019-01-23T07:51:38.593Z,88.70
2019-01-23T07:54:06.069Z,88.10
2019-01-23T07:56:33.600Z,87.50
2019-01-23T07:59:01.118Z,87.70
2019-01-23T08:01:28.617Z,88.00
2019-01-23T08:03:56.157Z,88.40
2019-01-23T08:06:23.634Z,87.50
2019-01-23T08:08:51.139Z,87.20
2019-01-23T08:11:18.761Z,87.10
2019-01-23T08:13:46.380Z,87.20
2019-01-23T08:16:13.941Z,87.80
2019-01-23T08:18:41.471Z,87.30
2019-01-23T08:21:09.081Z,87.20
2019-01-23T08:23:36.605Z,86.60
2019-01-23T08:26:04.151Z,86.50
2019-01-23T08:28:31.662Z,85.80
2019-01-23T08:30:59.209Z,86.40
2019-01-23T08:33:26.706Z,87.10
2019-01-23T08:35:54.207Z,86.30
2019-01-23T08:38:21.780Z,85.40
2019-01-23T08:40:49.279Z,83.90
2019-01-23T08:43:16.756Z,84.10
2019-01-23T08:45:44.312Z,83.80
2019-01-23T08:48:11.805Z,83.20
2019-01-23T08:50:41.871Z,81.60
2019-01-23T08:53:09.594Z,81.40
2019-01-23T08:55:37.161Z,82.10
2019-01-23T08:58:05.509Z,82.80
2019-01-23T09:00:34.192Z,82.20
2019-01-23T09:03:01.899Z,82.10
2019-01-23T09:05:29.431Z,82.20
2019-01-23T09:07:56.965Z,83.00
2019-01-23T09:10:24.501Z,82.30
2019-01-23T09:12:52.065Z,81.60
2019-01-23T09:15:19.786Z,82.70
2019-01-23T09:17:47.324Z,82.60
2019-01-23T09:20:16.107Z,83.00
2019-01-23T09:22:43.630Z,81.50
2019-01-23T09:25:12.946Z,80.40
2019-01-23T09:27:40.517Z,80.90
2019-01-23T09:30:24.638Z,80.60
2019-01-23T09:33:40.194Z,80.40
2019-01-23T09:36:45.213Z,80.80
2019-01-23T09:39:38.313Z,79.70
2019-01-23T09:42:52.902Z,79.10
2019-01-23T09:45:40.699Z,78.40
2019-01-23T09:48:54.301Z,78.30
2019-01-23T09:52:06.986Z,78.10
2019-01-23T09:54:34.537Z,78.90
2019-01-23T09:57:02.098Z,79.60
2019-01-23T09:59:29.628Z,78.70
2019-01-23T10:01:57.239Z,79.00
2019-01-23T10:04:24.726Z,79.60
2019-01-23T10:06:52.224Z,79.50
2019-01-23T10:09:19.781Z,78.40
2019-01-23T10:11:47.329Z,79.70
2019-01-23T10:14:14.828Z,78.80
2019-01-23T10:16:42.606Z,79.20
2019-01-23T10:19:13.627Z,79.20
2019-01-23T10:21:41.328Z,78.40
2019-01-23T10:24:09.105Z,78.00
2019-01-23T10:26:36.822Z,77.70
2019-01-23T10:29:04.681Z,78.20
2019-01-23T10:31:34.089Z,77.80
2019-01-23T10:34:01.888Z,77.10
2019-01-23T10:36:29.704Z,77.70
2019-01-23T10:38:57.442Z,76.90
2019-01-23T10:41:25.897Z,76.80
2019-01-23T10:43:53.617Z,76.50
2019-01-23T10:46:21.362Z,75.80
2019-01-23T10:48:49.144Z,75.30
2019-01-23T10:51:16.856Z,74.30
2019-01-23T10:53:44.666Z,73.90
2019-01-23T10:56:12.429Z,73.50
2019-01-23T10:58:40.259Z,73.60
2019-01-23T11:01:13.336Z,72.70
2019-01-23T11:03:37.668Z,72.60
2019-01-23T11:06:05.543Z,72.00
2019-01-23T11:08:33.371Z,72.00
2019-01-23T11:11:01.154Z,71.40
2019-01-23T11:13:28.885Z,71.90
2019-01-23T11:15:57.598Z,71.50
2019-01-23T11:18:25.494Z,70.50
2019-01-23T11:20:53.323Z,69.90
2019-01-23T11:23:21.083Z,69.20
2019-01-23T11:25:48.858Z,69.60
2019-01-23T11:28:16.607Z,69.70
2019-01-23T11:30:44.426Z,69.00
2019-01-23T11:33:12.515Z,68.80
2019-01-23T11:35:40.339Z,67.00
2019-01-23T11:38:08.098Z,67.00
2019-01-23T11:40:35.850Z,66.70
2019-01-23T11:43:06.422Z,67.10
2019-01-23T11:45:34.258Z,67.60
2019-01-23T11:48:02.051Z,67.10
2019-01-23T11:50:29.949Z,67.00
2019-01-23T11:52:58.169Z,67.40
2019-01-23T11:55:25.967Z,66.80
2019-01-23T11:57:53.884Z,66.40
2019-01-23T12:00:22.918Z,66.70
2019-01-23T12:02:51.929Z,66.50
2019-01-23T12:05:21.103Z,66.20
2019-01-23T12:07:49.137Z,65.70
2019-01-23T12:10:18.356Z,66.00
2019-01-23T12:12:46.212Z,66.60
2019-01-23T12:15:16.292Z,65.70
2019-01-23T12:17:44.122Z,66.10
2019-01-23T12:20:12.489Z,65.80
2019-01-23T12:22:40.390Z,65.60
2019-01-23T12:25:08.550Z,65.20
2019-01-23T12:27:36.279Z,66.60
2019-01-23T12:30:07.488Z,63.70
2019-01-23T12:32:35.233Z,63.40
2019-01-23T12:35:03.436Z,63.50
2019-01-23T12:37:31.172Z,63.30
2019-01-23T12:39:58.932Z,63.40
2019-01-23T12:42:26.734Z,63.50
2019-01-23T12:44:54.560Z,63.40
2019-01-23T12:47:22.292Z,63.40
2019-01-23T12:49:50.182Z,63.40
2019-01-23T12:52:17.963Z,62.70
2019-01-23T12:54:45.638Z,61.10
2019-01-23T12:57:13.384Z,62.10
2019-01-23T12:59:41.266Z,61.20
2019-01-23T13:02:09.795Z,60.10
2019-01-23T13:04:37.659Z,61.10
2019-01-23T13:07:05.511Z,61.50
2019-01-23T13:09:33.323Z,61.90
2019-01-23T13:12:01.072Z,61.50
2019-01-23T13:14:28.886Z,61.50
2019-01-23T13:16:56.711Z,62.50
2019-01-23T13:19:24.545Z,62.10
2019-01-23T13:21:52.379Z,61.60
2019-01-23T13:24:20.092Z,60.70
2019-01-23T13:26:47.908Z,61.10
2019-01-23T13:29:15.657Z,59.40
2019-01-23T13:31:49.085Z,59.20
2019-01-23T13:34:13.330Z,58.90
2019-01-23T13:36:41.173Z,59.50
2019-01-23T13:39:13.344Z,59.80
2019-01-23T13:41:41.118Z,59.90
2019-01-23T13:44:08.824Z,59.60
2019-01-23T13:46:36.576Z,59.60
2019-01-23T13:49:04.416Z,59.80
2019-01-23T13:51:32.202Z,59.60
2019-01-23T13:53:59.924Z,59.80
2019-01-23T13:56:27.627Z,60.00
2019-01-23T13:58:55.414Z,59.80
2019-01-23T14:01:23.180Z,59.50
2019-01-23T14:03:50.916Z,59.60
2019-01-23T14:06:18.684Z,59.50
2019-01-23T14:08:46.395Z,59.50
2019-01-23T14:11:14.310Z,59.50
2019-01-23T14:13:42.084Z,59.50
2019-01-23T14:16:10.004Z,59.50
2019-01-23T14:18:37.734Z,59.30
2019-01-23T14:21:05.483Z,59.50
2019-01-23T14:23:33.288Z,59.30
2019-01-23T14:26:00.998Z,59.10
2019-01-23T14:28:28.752Z,59.00
2019-01-23T14:30:56.516Z,58.60
2019-01-23T14:33:24.261Z,58.80
2019-01-23T14:35:52.019Z,59.00
2019-01-23T14:38:20.007Z,59.20
2019-01-23T14:40:47.755Z,59.40
2019-01-23T14:43:15.920Z,59.30
2019-01-23T14:45:43.742Z,59.50
2019-01-23T14:48:11.458Z,59.40
2019-01-23T14:50:39.207Z,59.60
2019-01-23T14:53:07.022Z,59.80
2019-01-23T14:55:34.754Z,60.10
2019-01-23T14:58:02.706Z,60.80
2019-01-23T15:00:30.922Z,61.30
2019-01-23T15:02:58.664Z,61.40
2019-01-23T15:05:26.403Z,61.90
2019-01-23T15:07:54.176Z,61.90
2019-01-23T15:10:24.014Z,61.90
2019-01-23T15:12:52.014Z,62.20
2019-01-23T15:15:19.856Z,62.90
2019-01-23T15:17:47.694Z,63.10
2019-01-23T15:20:27.862Z,63.40
2019-01-23T15:22:55.609Z,63.60
2019-01-23T15:25:23.478Z,63.90
2019-01-23T15:27:51.315Z,64.30
2019-01-23T15:30:20.596Z,64.60
2019-01-23T15:32:48.518Z,64.70
2019-01-23T15:35:18.438Z,65.10
2019-01-23T15:37:46.318Z,65.20
2019-01-23T15:40:19.654Z,65.30
2019-01-23T15:42:47.649Z,65.60
2019-01-23T15:45:15.827Z,65.90
2019-01-23T15:47:43.561Z,66.80
2019-01-23T15:50:13.874Z,66.10
2019-01-23T15:52:41.686Z,66.30
2019-01-23T15:55:11.555Z,66.70
2019-01-23T15:57:39.409Z,67.10
2019-01-23T16:00:14.100Z,67.10
2019-01-23T16:02:42.098Z,67.40
2019-01-23T16:05:10.101Z,67.30
2019-01-23T16:07:37.906Z,67.60
2019-01-23T16:10:06.561Z,67.70
2019-01-23T16:12:34.336Z,68.20
2019-01-23T16:15:02.163Z,68.30
2019-01-23T16:17:29.927Z,68.40
2019-01-23T16:19:57.718Z,68.70
2019-01-23T16:22:25.519Z,69.00
2019-01-23T16:24:53.265Z,69.20
2019-01-23T16:27:21.062Z,69.60
2019-01-23T16:29:48.834Z,70.20
2019-01-23T16:32:16.617Z,70.90
2019-01-23T16:34:44.455Z,70.20
2019-01-23T16:37:12.360Z,70.10
2019-01-23T16:39:40.102Z,70.10
2019-01-23T16:42:07.940Z,70.80
2019-01-23T16:44:35.711Z,71.40
2019-01-23T16:47:06.815Z,71.70
2019-01-23T16:49:37.951Z,71.80
2019-01-23T16:52:05.712Z,72.00
2019-01-23T16:54:35.088Z,71.90
2019-01-23T16:57:02.833Z,71.90
2019-01-23T16:59:30.550Z,72.20
2019-01-23T17:01:58.301Z,72.90
2019-01-23T17:04:26.032Z,73.30
2019-01-23T17:06:53.798Z,73.70
2019-01-23T17:09:21.520Z,73.50
2019-01-23T17:11:49.280Z,73.80
2019-01-23T17:14:17.030Z,74.10
2019-01-23T17:16:44.824Z,74.30
2019-01-23T17:19:12.555Z,74.40
2019-01-23T17:21:40.411Z,74.80
2019-01-23T17:24:08.176Z,75.30
2019-01-23T17:26:36.006Z,75.20
2019-01-23T17:29:04.891Z,75.80
2019-01-23T17:31:32.587Z,75.70
2019-01-23T17:34:00.326Z,75.90
2019-01-23T17:36:28.158Z,75.90
2019-01-23T17:38:55.874Z,76.20
2019-01-23T17:41:23.581Z,76.30
2019-01-23T17:43:51.766Z,76.90
2019-01-23T17:46:19.516Z,76.70
2019-01-23T17:48:47.411Z,76.70
2019-01-23T17:51:15.033Z,76.60
2019-01-23T17:53:42.587Z,76.50
2019-01-23T17:56:10.179Z,76.80
2019-01-23T17:58:38.426Z,77.40
2019-01-23T18:01:07.811Z,78.40
2019-01-23T18:03:35.632Z,77.70
2019-01-23T18:06:03.384Z,77.90
2019-01-23T18:08:31.048Z,78.10
2019-01-23T18:10:58.593Z,78.10
2019-01-23T18:13:26.501Z,77.90
2019-01-23T18:15:58.982Z,78.00
2019-01-23T18:18:27.066Z,78.00
2019-01-23T18:20:54.646Z,78.00
2019-01-23T18:23:22.214Z,78.20
2019-01-23T18:25:49.743Z,78.50
2019-01-23T18:28:17.608Z,78.70
2019-01-23T18:31:15.930Z,78.60
2019-01-23T18:34:02.900Z,78.50
2019-01-23T18:37:15.670Z,78.70
2019-01-23T18:40:32.826Z,79.00
2019-01-23T18:43:19.638Z,78.90
2019-01-23T18:46:08.971Z,79.00
2019-01-23T18:49:20.256Z,79.10
2019-01-23T18:52:10.805Z,78.70
2019-01-23T18:54:38.374Z,78.50
2019-01-23T18:57:07.525Z,78.40
2019-01-23T18:59:35.160Z,78.20
2019-01-23T19:02:02.837Z,78.30
2019-01-23T19:04:30.393Z,77.80
2019-01-23T19:06:58.010Z,78.20
2019-01-23T19:09:25.556Z,77.50
2019-01-23T19:11:53.095Z,76.80
2019-01-23T19:14:24.424Z,76.80
2019-01-23T19:16:50.034Z,76.40
2019-01-23T19:19:17.816Z,76.20
2019-01-23T19:21:45.504Z,76.40
2019-01-23T19:24:13.084Z,76.20
2019-01-23T19:26:40.644Z,76.30
2019-01-23T19:29:08.221Z,76.30
2019-01-23T19:31:35.780Z,76.50
2019-01-23T19:34:03.346Z,75.70
2019-01-23T19:36:30.919Z,75.50
2019-01-23T19:38:58.502Z,75.80
2019-01-23T19:41:26.194Z,75.70
2019-01-23T19:43:53.796Z,75.20
2019-01-23T19:46:21.451Z,75.80
2019-01-23T19:48:48.986Z,75.20
2019-01-23T19:51:19.159Z,75.00
2019-01-23T19:53:46.710Z,75.50
2019-01-23T19:56:14.269Z,75.10
2019-01-23T19:58:41.851Z,75.20
2019-01-23T20:01:09.483Z,75.40
2019-01-23T20:03:37.115Z,75.60
2019-01-23T20:06:04.658Z,75.40
2019-01-23T20:08:32.276Z,74.80
2019-01-23T20:10:59.783Z,75.20
2019-01-23T20:13:27.330Z,74.80
2019-01-23T20:15:54.922Z,75.30
2019-01-23T20:18:22.443Z,75.60
2019-01-23T20:20:50.651Z,75.90
2019-01-23T20:23:18.176Z,76.20
2019-01-23T20:25:45.704Z,75.40
2019-01-23T20:28:13.555Z,75.70
2019-01-23T20:30:43.051Z,75.40
2019-01-23T20:33:10.602Z,75.50
2019-01-23T20:35:38.240Z,75.30
2019-01-23T20:38:05.818Z,75.90
2019-01-23T20:40:33.410Z,76.00
2019-01-23T20:43:00.999Z,76.10
2019-01-23T20:45:28.606Z,76.00
2019-01-23T20:47:56.145Z,76.10
2019-01-23T20:50:26.243Z,76.40
2019-01-23T20:52:53.770Z,76.20
2019-01-23T20:55:21.317Z,76.40
2019-01-23T20:57:48.999Z,76.20
2019-01-23T21:00:19.005Z,76.40
2019-01-23T21:02:46.606Z,76.40
2019-01-23T21:05:14.623Z,76.50
2019-01-23T21:07:42.226Z,76.40
2019-01-23T21:10:11.029Z,76.30
2019-01-23T21:12:38.622Z,77.10
2019-01-23T21:15:06.242Z,76.60
2019-01-23T21:17:33.828Z,76.70
2019-01-23T21:20:01.475Z,76.10
2019-01-23T21:22:29.076Z,76.50
2019-01-23T21:24:56.768Z,76.40
2019-01-23T21:27:25.503Z,76.60
2019-01-23T21:29:53.099Z,77.10
2019-01-23T21:32:20.722Z,77.00
2019-01-23T21:34:48.270Z,76.80
2019-01-23T21:37:15.860Z,76.50
2019-01-23T21:39:43.427Z,76.70
2019-01-23T21:42:10.954Z,76.60
2019-01-23T21:44:38.474Z,77.00
2019-01-23T21:47:06.065Z,77.20
2019-01-23T21:49:33.603Z,76.80
2019-01-23T21:52:01.232Z,76.30
2019-01-23T21:54:29.674Z,76.60
2019-01-23T21:56:57.365Z,76.70
2019-01-23T21:59:25.009Z,76.90
2019-01-23T22:01:52.548Z,76.70
2019-01-23T22:04:20.139Z,76.00
2019-01-23T22:06:47.796Z,76.50
2019-01-23T22:09:15.379Z,76.60
2019-01-23T22:11:43.744Z,77.30
2019-01-23T22:14:11.574Z,77.40
2019-01-23T22:16:39.173Z,76.70
2019-01-23T22:19:06.688Z,76.60
2019-01-23T22:21:34.249Z,76.30
2019-01-23T22:24:01.790Z,76.60
2019-01-23T22:26:29.337Z,76.50
2019-01-23T22:28:56.923Z,76.50
2019-01-23T22:31:24.451Z,76.50
2019-01-23T22:33:56.077Z,76.50
2019-01-23T22:36:21.329Z,76.60
2019-01-23T22:38:48.864Z,76.80
2019-01-23T22:41:16.418Z,76.90
2019-01-23T22:43:43.941Z,77.00
2019-01-23T22:46:15.205Z,77.10
2019-01-23T22:48:46.111Z,77.10
2019-01-23T22:51:17.450Z,77.10
2019-01-23T22:53:44.966Z,76.40
2019-01-23T22:56:12.481Z,77.00
2019-01-23T22:58:39.985Z,76.00
2019-01-23T23:01:21.573Z,75.80
2019-01-23T23:03:49.055Z,76.00
2019-01-23T23:06:16.565Z,76.60
2019-01-23T23:08:44.089Z,76.20
2019-01-23T23:11:11.578Z,76.00
2019-01-23T23:13:39.173Z,76.10
2019-01-23T23:16:06.702Z,76.60
2019-01-23T23:18:34.202Z,76.90
2019-01-23T23:21:01.719Z,76.90
2019-01-23T23:23:29.233Z,77.40
2019-01-23T23:25:56.737Z,76.60
2019-01-23T23:28:26.030Z,76.40
2019-01-23T23:30:53.694Z,76.70
2019-01-23T23:33:21.259Z,76.40
2019-01-23T23:35:48.819Z,76.20
2019-01-23T23:38:16.288Z,76.60
2019-01-23T23:40:43.793Z,76.60
2019-01-23T23:43:11.310Z,76.60
2019-01-23T23:45:38.835Z,76.20
2019-01-23T23:48:06.340Z,76.40
2019-01-23T23:50:33.839Z,75.90
2019-01-23T23:53:01.395Z,75.80
2019-01-23T23:55:28.931Z,76.30
2019-01-23T23:57:56.457Z,75.90
